The Easy Runner Sodbury Slog
Skip Navigation Links
Results
Team Results
Live Leaderboard
Past Slog Results
Race Stats
Smartphone Results
12 November 2017
HyperLink
Click on you name for more detailed race data
Page 1 of 24 (1169 items)
[1]234567...21222324
Pos
Bib No
Fav
Share
Print
Video
Name
Time *
Chip Time
Category
Cat Pos
Gender
Gen Pos
Club
Pace
11408Phil RADFORD1:02:01.31:02:00.6Top 31Male1BRISTOL AND WEST AC (EST. 1882) 9.7 m/hr
21021Ben RAWLINS1:04:35.31:04:30.3Top 32Male2  9.3 m/hr
3931Paul O'MARA1:04:50.01:04:48.5Top 33Male3TYNE BRIDGE HARRIERS 9.3 m/hr
4468Anthony GLOVER1:05:50.31:05:50.2VM401Male4WESTBURY HARRIERS 9.1 m/hr
51387Tom DOBRA1:05:56.61:05:56.1SenM1Male5UBACCC 9.1 m/hr
6826Ciaran MCQUADE1:06:43.11:06:42.4SenM2Male6  9.0 m/hr
71400James LEWIS1:08:49.81:08:48.8SenM3Male7UBACCC 8.7 m/hr
81394Alex HICKMOTT1:09:08.41:09:04.3SenM4Male8UBACCC 8.7 m/hr
91420Phillipa WILLIAMS1:09:32.61:09:32.0Top 31Female1UBACCC 8.6 m/hr
101323Stuart WILKIE1:10:52.91:10:51.4SenM5Male9MUD CREW TRAIL RUNNERS 8.5 m/hr
111211Colin THOMPSON1:11:06.31:11:05.4VM402Male10  8.4 m/hr
121177Samuel STONE1:11:18.81:11:17.3SenM6Male11EMERSON GREEN RUNNING CLUB 8.4 m/hr
131407Henry PUTLEY1:11:31.21:11:28.8SenM7Male12UBACCC 8.4 m/hr
14752Nick LEWIS1:11:53.41:11:46.7VM403Male13  8.3 m/hr
15185Billy CARTER1:11:59.11:11:59.1SenM8Male14  8.3 m/hr
161352Matthew WOODWARD1:12:17.51:12:07.3VM404Male15  8.3 m/hr
17439Rob FURLONG1:12:24.21:12:21.9SenM9Male16WESTON ATHLETIC CLUB 8.3 m/hr
18696Lee KIBBLE1:12:52.11:12:38.9SenM10Male17FOREST OF DEAN AC 8.2 m/hr
19672Rob JONES1:13:23.11:13:21.9SenM11Male18WORCESTER AC 8.2 m/hr
201129Andrew SMALL1:13:34.41:13:32.2VM405Male19EMERSON GREEN RUNNING CLUB 8.2 m/hr
211319Marc WHITING1:13:37.61:13:34.9VM501Male20WESTON ATHLETIC CLUB 8.1 m/hr
22728Peter LARMAN1:13:49.61:13:46.5VM406Male21FROME RUNNING CLUB 8.1 m/hr
23976Daryl PHILLIPS1:13:55.51:13:54.5SenM12Male22BRISTOL AND WEST AC (EST. 1882) 8.1 m/hr
24247Andrew CONRADI1:14:01.81:14:00.2VM502Male23  8.1 m/hr
25563Nick HITCHINGS1:14:05.21:14:04.2VM407Male24WORCESTER AC 8.1 m/hr
261410Ryan SMITH1:14:09.01:13:56.7SenM13Male25UBACCC 8.1 m/hr
27533James HARTLEY1:14:31.21:14:25.2VM408Male26  8.1 m/hr
28191Peter CASELEY1:14:42.71:14:37.6SenM14Male27  8.0 m/hr
29489Leyton GREEN1:14:54.91:14:52.0VM409Male28YEOVIL TOWN RRC 8.0 m/hr
301326Chris WILLIAMS1:15:14.11:15:11.7VM4010Male29EMERSON GREEN RUNNING CLUB 8.0 m/hr
311311Matthew WHEELER1:15:27.21:15:24.7VM4011Male30WESTON ATHLETIC CLUB 8.0 m/hr
321397Tom JOY1:15:45.11:15:40.2SenM15Male31UBACCC 7.9 m/hr
33712John KNIGHT1:15:52.01:15:49.7VM4012Male32  7.9 m/hr
34992Dan PORT1:16:08.61:16:05.8SenM16Male33HUCCLECOTE HARRIERS 7.9 m/hr
35932Chris ORE1:16:09.31:16:07.1SenM17Male34HERCULES WIMBLEDON AC 7.9 m/hr
36496Andrew GRIFFITH1:16:22.81:16:21.3VM503Male35FRAMPTON COTTERELL HARRIERS 7.9 m/hr
37722Andrew LANE1:16:35.71:16:34.5SenM18Male36  7.8 m/hr
38948Matt PANG1:16:38.61:16:30.1SenM19Male37KINGSWOOD TRIATHLON CLUB 7.8 m/hr
39378Dan ELMES1:16:48.21:16:40.3SenM20Male38SOMER AC 7.8 m/hr
401257Sophie VOLLER1:16:52.31:16:49.8Top 32Female2WESTBURY HARRIERS 7.8 m/hr
411358Andrew WRIGHT1:17:06.41:17:04.1VM4013Male39ROYAL NAVY ATHLETICS CLUB 7.8 m/hr
42242George COMINS1:17:07.91:17:01.2SenM21Male40  7.8 m/hr
43110Marc BOSTOCK1:17:20.11:17:16.6SenM22Male41WESTON ATHLETIC CLUB 7.8 m/hr
44343Jonathan DOYLE1:17:22.71:17:19.6SenM23Male42EMERSON GREEN RUNNING CLUB 7.8 m/hr
45105James BISP1:17:42.51:17:40.9SenM24Male43  7.7 m/hr
46811Mike MCBETH1:17:47.31:17:41.9VM504Male44SOUTHVILLE RUNNING CLUB 7.7 m/hr
471396Sam HUTSON-SMITH1:17:48.71:17:44.2SenM25Male45UBACCC 7.7 m/hr
481008Andrew PROCTER1:17:50.71:17:45.6VM4014Male46  7.7 m/hr
491437David WHEELER1:18:19.01:18:17.9SenM26Male47CHEPSTOW HARRIERS 7.7 m/hr
50753Robin LEWIS1:18:23.01:18:14.8SenM27Male48TEAM BATH ATHLETICS CLUB 7.7 m/hr
Page 1 of 24 (1169 items)
[1]234567...21222324
fb

HyperLink Copyright (c) G Vincent, 2017